This is the latest recevied weather packets stored in our database for station/object PU5FJO-13. If no packets are shown the sender has not sent any weather packets the latest 10 day(s).
| Time | Temp. | Humidity | Pressure | Rain* | Wind** | Luminosity | Snow |
|---|---|---|---|---|---|---|---|
| 1778047574 | 19.44° C | 84% | 1019.5 hPa | - | - | - | - |
| 1778046974 | 20° C | 82% | 1019.4 hPa | - | - | - | - |
| 1778046374 | 20.56° C | 81% | 1019.3 hPa | - | - | - | - |
| 1778045774 | 20° C | 82% | 1019.3 hPa | - | - | - | - |
| 1778045174 | 20.56° C | 80% | 1019.3 hPa | - | - | - | - |
| 1778044574 | 20.56° C | 83% | 1019.3 hPa | - | - | - | - |
| 1778043974 | 21.11° C | 83% | 1019.3 hPa | - | - | - | - |
| 1778043374 | 21.11° C | 84% | 1019.2 hPa | - | - | - | - |
| 1778042774 | 21.67° C | 86% | 1019.2 hPa | - | - | - | - |
| 1778042174 | 21.11° C | 87% | 1019.2 hPa | - | - | - | - |
| 1778041574 | 22.22° C | 78% | 1019.3 hPa | - | - | - | - |
| 1778040974 | 21.67° C | 81% | 1019.2 hPa | - | - | - | - |
| 1778040374 | 21.67° C | 82% | 1019.1 hPa | - | - | - | - |
| 1778039774 | 21.11° C | 85% | 1019 hPa | - | - | - | - |
| 1778039174 | 21.11° C | 85% | 1019.1 hPa | - | - | - | - |
| 1778038574 | 21.67° C | 82% | 1019.1 hPa | - | - | - | - |
| 1778037974 | 22.22° C | 81% | 1019.2 hPa | - | - | - | - |
| 1778037374 | 22.78° C | 76% | 1019.3 hPa | - | - | - | - |
| 1778036774 | 23.33° C | 76% | 1019.3 hPa | - | - | - | - |
| 1778036174 | 22.78° C | 78% | 1019.3 hPa | - | - | - | - |
| 1778035574 | 22.22° C | 81% | 1019.4 hPa | - | - | - | - |
| 1778034975 | 22.22° C | 82% | 1019.4 hPa | - | - | - | - |
| 1778034374 | 22.22° C | 83% | 1019.4 hPa | - | - | - | - |
| 1778033775 | 21.67° C | 84% | 1019.4 hPa | - | - | - | - |
| 1778033174 | 22.22° C | 84% | 1019.4 hPa | - | - | - | - |
* Rain since midnight (hover to see other rain measurements)
** Current wind speed in m/s (hover to see current wind gust speed)